Rockwell, NC (28138)

2:15 PM EST on February 10, 2016 (GMT -0500)
RockGrove | | Change Station
CLOSE
Current Station
Personal Weather Station
Location: Salisbury, NC
Elevation: 856 ft
Nearby Weather Stations

Elev 856 ft 35.55 °N, 80.48 °W | Updated 13 minutes ago

Mostly Cloudy
Mostly Cloudy
33.3 °F
Feels Like 29 °F
N
5.0
Wind Variable Wind from NNW
Gusts 13.0 mph

Today
High -- | Low -- °F
--% Chance of Precip.
Yesterday
High -- | Low -- °F
Precip. -- in
Pressure 29.90 in
Visibility 10.0 miles
Clouds Scattered Clouds 5500 ft
Windchill 29 °F
Dew Point 12 °F
Humidity 42%
Rainfall 0.00 in
Snow Depth Not available.
7:14 AM 5:58 PM
Waxing Crescent, 6% visible
METAR KRUQ 101855Z AUTO 24006G14KT 10SM SCT055 01/M13 A2990 RMK AO2 T00081132
Pressure 29.90 in
Visibility 10.0 miles
Clouds Scattered Clouds 5500 ft
Windchill 29 °F
Dew Point 12 °F
Humidity 42%
Rainfall 0.00 in
Snow Depth Not available.
7:14 AM 5:58 PM
Waxing Crescent, 6% visible
METAR KRUQ 101855Z AUTO 24006G14KT 10SM SCT055 01/M13 A2990 RMK AO2 T00081132

10-Day Weather Forecast

Almanac

Astronomy

Feb. 10, 2016 Rise Set
Actual Time
Civil Twilight
Nautical Twilight
Astronomical Twilight
Moon
Length of Visible Light
Length of Day
Tomorrow will be .
, % of the Moon is Illuminated

Today's Extremes

State Highs State Lows

Community

WunderPhotos

Upload Photos

1,891,922 photos uploaded!

WunderBlog® & News

Nearby

Air Quality

  Air Quality AQ Index Pollutant
Not available.

Snow Depth

Station Depth Elevation

Earthquake Activity

City Distance Mag. Time & Date
Minimum magnitude displayed is 2.5.

Coastal Water Temperatures

Place Temperature

Stations

Nearby Weather Stations

Station Location Temp. Windchill Dew Point Humidity Wind Precip. Elev Updated Type
                   

Watches & Warnings

There are currently no watches in effect.